sensor_id;sensor_type;location;lat;lon;timestamp;P1;durP1;ratioP1;P2;durP2;ratioP2
25331;SDS011;13284;52.748;13.452;2024-01-15T00:00:44;6.60;;;3.67;;
25331;SDS011;13284;52.748;13.452;2024-01-15T00:03:09;11.33;;;6.60;;
25331;SDS011;13284;52.748;13.452;2024-01-15T00:05:35;8.80;;;4.67;;
25331;SDS011;13284;52.748;13.452;2024-01-15T00:08:01;9.10;;;5.57;;
25331;SDS011;13284;52.748;13.452;2024-01-15T00:10:26;10.13;;;5.87;;
25331;SDS011;13284;52.748;13.452;2024-01-15T00:12:52;6.60;;;4.57;;
25331;SDS011;13284;52.748;13.452;2024-01-15T00:15:17;8.77;;;5.50;;
25331;SDS011;13284;52.748;13.452;2024-01-15T00:17:43;10.43;;;5.10;;
25331;SDS011;13284;52.748;13.452;2024-01-15T00:20:08;10.37;;;5.00;;
25331;SDS011;13284;52.748;13.452;2024-01-15T00:22:34;13.43;;;6.40;;
25331;SDS011;13284;52.748;13.452;2024-01-15T00:25:00;8.97;;;5.03;;
25331;SDS011;13284;52.748;13.452;2024-01-15T00:27:27;8.70;;;5.50;;
25331;SDS011;13284;52.748;13.452;2024-01-15T00:29:52;9.17;;;4.67;;
25331;SDS011;13284;52.748;13.452;2024-01-15T00:32:19;6.30;;;4.33;;
25331;SDS011;13284;52.748;13.452;2024-01-15T00:34:45;10.40;;;4.40;;
25331;SDS011;13284;52.748;13.452;2024-01-15T00:37:10;7.90;;;5.17;;
25331;SDS011;13284;52.748;13.452;2024-01-15T00:39:36;10.97;;;6.07;;
25331;SDS011;13284;52.748;13.452;2024-01-15T00:42:01;8.23;;;5.10;;
25331;SDS011;13284;52.748;13.452;2024-01-15T00:44:27;6.53;;;3.93;;
25331;SDS011;13284;52.748;13.452;2024-01-15T00:46:53;6.73;;;3.60;;
25331;SDS011;13284;52.748;13.452;2024-01-15T00:49:18;9.40;;;5.57;;
25331;SDS011;13284;52.748;13.452;2024-01-15T00:51:44;8.17;;;5.47;;
25331;SDS011;13284;52.748;13.452;2024-01-15T00:54:10;5.17;;;4.23;;
25331;SDS011;13284;52.748;13.452;2024-01-15T00:56:36;7.20;;;4.50;;
25331;SDS011;13284;52.748;13.452;2024-01-15T00:59:02;6.90;;;5.10;;
25331;SDS011;13284;52.748;13.452;2024-01-15T01:01:27;11.07;;;5.47;;
25331;SDS011;13284;52.748;13.452;2024-01-15T01:03:53;8.10;;;4.40;;
25331;SDS011;13284;52.748;13.452;2024-01-15T01:06:18;6.47;;;3.73;;
25331;SDS011;13284;52.748;13.452;2024-01-15T01:08:44;5.33;;;3.57;;
25331;SDS011;13284;52.748;13.452;2024-01-15T01:11:12;6.70;;;4.53;;
25331;SDS011;13284;52.748;13.452;2024-01-15T01:13:38;5.37;;;4.40;;
25331;SDS011;13284;52.748;13.452;2024-01-15T01:16:04;4.83;;;2.47;;
25331;SDS011;13284;52.748;13.452;2024-01-15T01:18:30;5.27;;;2.97;;
25331;SDS011;13284;52.748;13.452;2024-01-15T01:20:55;6.47;;;3.97;;
25331;SDS011;13284;52.748;13.452;2024-01-15T01:23:21;4.57;;;3.20;;
25331;SDS011;13284;52.748;13.452;2024-01-15T01:25:46;6.33;;;3.37;;
25331;SDS011;13284;52.748;13.452;2024-01-15T01:28:12;4.60;;;3.47;;
25331;SDS011;13284;52.748;13.452;2024-01-15T01:30:37;8.23;;;4.70;;
25331;SDS011;13284;52.748;13.452;2024-01-15T01:33:03;6.70;;;4.30;;
25331;SDS011;13284;52.748;13.452;2024-01-15T01:35:28;4.47;;;3.30;;
25331;SDS011;13284;52.748;13.452;2024-01-15T01:37:54;5.90;;;3.07;;
25331;SDS011;13284;52.748;13.452;2024-01-15T01:40:19;5.97;;;3.03;;
25331;SDS011;13284;52.748;13.452;2024-01-15T01:42:45;5.60;;;3.87;;
25331;SDS011;13284;52.748;13.452;2024-01-15T01:45:11;7.10;;;4.00;;
25331;SDS011;13284;52.748;13.452;2024-01-15T01:47:36;4.33;;;3.00;;
25331;SDS011;13284;52.748;13.452;2024-01-15T01:50:03;3.90;;;2.33;;
25331;SDS011;13284;52.748;13.452;2024-01-15T01:52:30;4.90;;;3.37;;
25331;SDS011;13284;52.748;13.452;2024-01-15T01:54:56;7.07;;;4.00;;
25331;SDS011;13284;52.748;13.452;2024-01-15T01:57:23;6.20;;;3.17;;
25331;SDS011;13284;52.748;13.452;2024-01-15T01:59:48;4.80;;;2.80;;
25331;SDS011;13284;52.748;13.452;2024-01-15T02:02:14;7.20;;;4.10;;
25331;SDS011;13284;52.748;13.452;2024-01-15T02:04:41;5.77;;;2.80;;
25331;SDS011;13284;52.748;13.452;2024-01-15T02:07:07;3.07;;;2.77;;
25331;SDS011;13284;52.748;13.452;2024-01-15T02:09:32;3.80;;;2.80;;
25331;SDS011;13284;52.748;13.452;2024-01-15T02:11:58;4.20;;;2.50;;
25331;SDS011;13284;52.748;13.452;2024-01-15T02:14:24;6.77;;;3.53;;
25331;SDS011;13284;52.748;13.452;2024-01-15T02:16:56;6.27;;;3.57;;
25331;SDS011;13284;52.748;13.452;2024-01-15T02:19:22;4.87;;;2.83;;
25331;SDS011;13284;52.748;13.452;2024-01-15T02:21:47;8.57;;;3.67;;
25331;SDS011;13284;52.748;13.452;2024-01-15T02:24:13;7.37;;;3.10;;
25331;SDS011;13284;52.748;13.452;2024-01-15T02:26:38;4.50;;;2.90;;
25331;SDS011;13284;52.748;13.452;2024-01-15T02:29:04;5.43;;;3.10;;
25331;SDS011;13284;52.748;13.452;2024-01-15T02:31:33;6.30;;;4.20;;
25331;SDS011;13284;52.748;13.452;2024-01-15T02:33:58;8.63;;;4.30;;
25331;SDS011;13284;52.748;13.452;2024-01-15T02:36:24;5.60;;;3.40;;
25331;SDS011;13284;52.748;13.452;2024-01-15T02:38:49;8.07;;;3.47;;
25331;SDS011;13284;52.748;13.452;2024-01-15T02:41:15;6.03;;;3.47;;
25331;SDS011;13284;52.748;13.452;2024-01-15T02:43:40;4.20;;;2.30;;
25331;SDS011;13284;52.748;13.452;2024-01-15T02:46:06;5.77;;;3.60;;
25331;SDS011;13284;52.748;13.452;2024-01-15T02:48:31;6.63;;;4.07;;
25331;SDS011;13284;52.748;13.452;2024-01-15T02:50:58;8.23;;;2.80;;
25331;SDS011;13284;52.748;13.452;2024-01-15T02:53:23;7.80;;;3.30;;
25331;SDS011;13284;52.748;13.452;2024-01-15T02:55:49;7.80;;;3.27;;
25331;SDS011;13284;52.748;13.452;2024-01-15T02:58:14;5.90;;;3.43;;
25331;SDS011;13284;52.748;13.452;2024-01-15T03:00:40;4.10;;;3.40;;
25331;SDS011;13284;52.748;13.452;2024-01-15T03:03:05;5.90;;;3.43;;
25331;SDS011;13284;52.748;13.452;2024-01-15T03:05:31;3.50;;;2.20;;
25331;SDS011;13284;52.748;13.452;2024-01-15T03:07:57;3.50;;;1.83;;
25331;SDS011;13284;52.748;13.452;2024-01-15T03:10:22;3.93;;;2.00;;
25331;SDS011;13284;52.748;13.452;2024-01-15T03:12:48;4.40;;;3.00;;
25331;SDS011;13284;52.748;13.452;2024-01-15T03:15:13;8.43;;;3.27;;
25331;SDS011;13284;52.748;13.452;2024-01-15T03:17:39;4.27;;;2.93;;
25331;SDS011;13284;52.748;13.452;2024-01-15T03:20:06;3.50;;;2.50;;
25331;SDS011;13284;52.748;13.452;2024-01-15T03:22:32;3.03;;;1.93;;
25331;SDS011;13284;52.748;13.452;2024-01-15T03:24:57;5.47;;;2.90;;
25331;SDS011;13284;52.748;13.452;2024-01-15T03:27:23;6.07;;;2.60;;
25331;SDS011;13284;52.748;13.452;2024-01-15T03:29:49;5.17;;;2.10;;
25331;SDS011;13284;52.748;13.452;2024-01-15T03:32:14;3.47;;;2.50;;
25331;SDS011;13284;52.748;13.452;2024-01-15T03:34:41;3.13;;;1.70;;
25331;SDS011;13284;52.748;13.452;2024-01-15T03:37:06;3.33;;;2.30;;
25331;SDS011;13284;52.748;13.452;2024-01-15T03:39:32;2.33;;;2.13;;
25331;SDS011;13284;52.748;13.452;2024-01-15T03:41:57;3.20;;;2.13;;
25331;SDS011;13284;52.748;13.452;2024-01-15T03:44:23;2.57;;;2.00;;
25331;SDS011;13284;52.748;13.452;2024-01-15T03:46:48;3.13;;;1.60;;
25331;SDS011;13284;52.748;13.452;2024-01-15T03:49:15;6.00;;;4.20;;
25331;SDS011;13284;52.748;13.452;2024-01-15T03:51:40;3.07;;;2.30;;
25331;SDS011;13284;52.748;13.452;2024-01-15T03:54:06;3.50;;;1.93;;
25331;SDS011;13284;52.748;13.452;2024-01-15T03:56:31;4.80;;;2.87;;
25331;SDS011;13284;52.748;13.452;2024-01-15T03:58:57;4.20;;;1.93;;
25331;SDS011;13284;52.748;13.452;2024-01-15T04:01:23;4.30;;;3.40;;
25331;SDS011;13284;52.748;13.452;2024-01-15T04:03:48;5.70;;;3.23;;
25331;SDS011;13284;52.748;13.452;2024-01-15T04:06:14;4.00;;;2.30;;
25331;SDS011;13284;52.748;13.452;2024-01-15T04:08:39;6.90;;;2.70;;
25331;SDS011;13284;52.748;13.452;2024-01-15T04:11:05;3.97;;;1.60;;
25331;SDS011;13284;52.748;13.452;2024-01-15T04:13:34;3.07;;;2.17;;
25331;SDS011;13284;52.748;13.452;2024-01-15T04:16:00;5.50;;;2.13;;
25331;SDS011;13284;52.748;13.452;2024-01-15T04:18:25;4.50;;;1.40;;
25331;SDS011;13284;52.748;13.452;2024-01-15T04:20:51;3.17;;;2.17;;
25331;SDS011;13284;52.748;13.452;2024-01-15T04:23:16;2.70;;;1.70;;
25331;SDS011;13284;52.748;13.452;2024-01-15T04:25:42;6.63;;;1.77;;
25331;SDS011;13284;52.748;13.452;2024-01-15T04:28:08;2.30;;;1.33;;
25331;SDS011;13284;52.748;13.452;2024-01-15T04:30:34;1.97;;;1.73;;
25331;SDS011;13284;52.748;13.452;2024-01-15T04:33:00;5.40;;;1.67;;
25331;SDS011;13284;52.748;13.452;2024-01-15T04:35:26;1.97;;;1.23;;
25331;SDS011;13284;52.748;13.452;2024-01-15T04:37:51;2.80;;;1.80;;
25331;SDS011;13284;52.748;13.452;2024-01-15T04:40:17;12.60;;;3.70;;
25331;SDS011;13284;52.748;13.452;2024-01-15T04:42:43;0.80;;;0.60;;
25331;SDS011;13284;52.748;13.452;2024-01-15T04:45:10;3.03;;;1.80;;
25331;SDS011;13284;52.748;13.452;2024-01-15T04:47:36;3.80;;;2.20;;
25331;SDS011;13284;52.748;13.452;2024-01-15T04:50:02;3.63;;;2.20;;
25331;SDS011;13284;52.748;13.452;2024-01-15T04:52:28;1.10;;;1.00;;
25331;SDS011;13284;52.748;13.452;2024-01-15T04:54:54;2.30;;;1.10;;
25331;SDS011;13284;52.748;13.452;2024-01-15T04:57:19;6.83;;;0.97;;
25331;SDS011;13284;52.748;13.452;2024-01-15T04:59:45;2.92;;;1.90;;
25331;SDS011;13284;52.748;13.452;2024-01-15T05:02:10;4.33;;;2.30;;
25331;SDS011;13284;52.748;13.452;2024-01-15T05:04:36;4.40;;;1.43;;
25331;SDS011;13284;52.748;13.452;2024-01-15T05:07:01;3.03;;;1.50;;
25331;SDS011;13284;52.748;13.452;2024-01-15T05:09:27;2.43;;;1.60;;
25331;SDS011;13284;52.748;13.452;2024-01-15T05:11:53;2.77;;;1.80;;
25331;SDS011;13284;52.748;13.452;2024-01-15T05:14:19;6.73;;;2.27;;
25331;SDS011;13284;52.748;13.452;2024-01-15T05:16:48;8.83;;;2.23;;
25331;SDS011;13284;52.748;13.452;2024-01-15T05:19:14;5.90;;;1.57;;
25331;SDS011;13284;52.748;13.452;2024-01-15T05:21:40;6.10;;;1.67;;
25331;SDS011;13284;52.748;13.452;2024-01-15T05:24:05;1.70;;;0.90;;
25331;SDS011;13284;52.748;13.452;2024-01-15T05:26:32;4.63;;;2.07;;
25331;SDS011;13284;52.748;13.452;2024-01-15T05:28:58;1.80;;;1.43;;
25331;SDS011;13284;52.748;13.452;2024-01-15T05:31:24;2.50;;;1.03;;
25331;SDS011;13284;52.748;13.452;2024-01-15T05:33:49;4.53;;;2.07;;
25331;SDS011;13284;52.748;13.452;2024-01-15T05:36:15;5.80;;;1.10;;
25331;SDS011;13284;52.748;13.452;2024-01-15T05:38:40;3.20;;;1.40;;
25331;SDS011;13284;52.748;13.452;2024-01-15T05:41:06;2.33;;;1.10;;
25331;SDS011;13284;52.748;13.452;2024-01-15T05:43:32;3.43;;;1.73;;
25331;SDS011;13284;52.748;13.452;2024-01-15T05:45:58;1.27;;;1.17;;
25331;SDS011;13284;52.748;13.452;2024-01-15T05:48:23;2.67;;;1.30;;
25331;SDS011;13284;52.748;13.452;2024-01-15T05:50:49;1.10;;;0.90;;
25331;SDS011;13284;52.748;13.452;2024-01-15T05:53:14;1.57;;;1.10;;
25331;SDS011;13284;52.748;13.452;2024-01-15T05:55:40;2.80;;;1.00;;
25331;SDS011;13284;52.748;13.452;2024-01-15T05:58:06;2.07;;;1.23;;
25331;SDS011;13284;52.748;13.452;2024-01-15T06:00:32;2.30;;;1.20;;
25331;SDS011;13284;52.748;13.452;2024-01-15T06:03:01;1.67;;;0.93;;
25331;SDS011;13284;52.748;13.452;2024-01-15T06:05:26;2.03;;;0.80;;
25331;SDS011;13284;52.748;13.452;2024-01-15T06:07:52;2.70;;;1.37;;
25331;SDS011;13284;52.748;13.452;2024-01-15T06:10:17;1.10;;;1.10;;
25331;SDS011;13284;52.748;13.452;2024-01-15T06:12:43;4.03;;;1.20;;
25331;SDS011;13284;52.748;13.452;2024-01-15T06:15:09;2.60;;;1.20;;
25331;SDS011;13284;52.748;13.452;2024-01-15T06:17:35;5.65;;;1.50;;
25331;SDS011;13284;52.748;13.452;2024-01-15T06:20:00;0.70;;;0.70;;
25331;SDS011;13284;52.748;13.452;2024-01-15T06:22:26;2.80;;;0.97;;
25331;SDS011;13284;52.748;13.452;2024-01-15T06:24:51;2.17;;;1.30;;
25331;SDS011;13284;52.748;13.452;2024-01-15T06:27:17;2.07;;;0.67;;
25331;SDS011;13284;52.748;13.452;2024-01-15T06:29:44;3.33;;;1.43;;
25331;SDS011;13284;52.748;13.452;2024-01-15T06:32:13;0.63;;;0.60;;
25331;SDS011;13284;52.748;13.452;2024-01-15T06:34:38;0.87;;;0.80;;
25331;SDS011;13284;52.748;13.452;2024-01-15T06:37:04;1.70;;;1.10;;
25331;SDS011;13284;52.748;13.452;2024-01-15T06:39:30;5.20;;;1.37;;
25331;SDS011;13284;52.748;13.452;2024-01-15T06:41:55;1.60;;;0.73;;
25331;SDS011;13284;52.748;13.452;2024-01-15T06:44:21;2.40;;;0.60;;
25331;SDS011;13284;52.748;13.452;2024-01-15T06:46:47;3.93;;;1.07;;
25331;SDS011;13284;52.748;13.452;2024-01-15T06:49:12;8.33;;;0.97;;
25331;SDS011;13284;52.748;13.452;2024-01-15T06:51:38;2.90;;;0.90;;
25331;SDS011;13284;52.748;13.452;2024-01-15T06:54:04;4.73;;;1.27;;
25331;SDS011;13284;52.748;13.452;2024-01-15T06:56:30;3.50;;;0.87;;
25331;SDS011;13284;52.748;13.452;2024-01-15T06:58:56;9.43;;;0.90;;
25331;SDS011;13284;52.748;13.452;2024-01-15T07:01:21;4.33;;;1.20;;
25331;SDS011;13284;52.748;13.452;2024-01-15T07:03:47;2.80;;;0.70;;
25331;SDS011;13284;52.748;13.452;2024-01-15T07:06:13;4.73;;;0.87;;
25331;SDS011;13284;52.748;13.452;2024-01-15T07:08:39;3.80;;;0.90;;
25331;SDS011;13284;52.748;13.452;2024-01-15T07:11:05;0.73;;;0.60;;
25331;SDS011;13284;52.748;13.452;2024-01-15T07:13:31;1.47;;;0.60;;
25331;SDS011;13284;52.748;13.452;2024-01-15T07:15:57;1.73;;;0.60;;
25331;SDS011;13284;52.748;13.452;2024-01-15T07:18:23;3.30;;;0.93;;
25331;SDS011;13284;52.748;13.452;2024-01-15T07:20:48;2.60;;;0.70;;
25331;SDS011;13284;52.748;13.452;2024-01-15T07:23:14;4.07;;;1.10;;
25331;SDS011;13284;52.748;13.452;2024-01-15T07:25:39;4.63;;;1.53;;
25331;SDS011;13284;52.748;13.452;2024-01-15T07:28:05;0.63;;;0.57;;
25331;SDS011;13284;52.748;13.452;2024-01-15T07:30:31;5.77;;;1.20;;
25331;SDS011;13284;52.748;13.452;2024-01-15T07:32:56;1.63;;;0.60;;
25331;SDS011;13284;52.748;13.452;2024-01-15T07:35:22;1.90;;;0.57;;
25331;SDS011;13284;52.748;13.452;2024-01-15T07:37:47;12.20;;;1.27;;
25331;SDS011;13284;52.748;13.452;2024-01-15T07:40:13;1.83;;;1.00;;
25331;SDS011;13284;52.748;13.452;2024-01-15T07:42:38;0.97;;;0.80;;
25331;SDS011;13284;52.748;13.452;2024-01-15T07:45:04;1.20;;;0.70;;
25331;SDS011;13284;52.748;13.452;2024-01-15T07:47:30;4.87;;;1.23;;
25331;SDS011;13284;52.748;13.452;2024-01-15T07:49:56;6.70;;;1.40;;
25331;SDS011;13284;52.748;13.452;2024-01-15T07:52:22;5.27;;;0.90;;
25331;SDS011;13284;52.748;13.452;2024-01-15T07:54:47;4.00;;;1.03;;
25331;SDS011;13284;52.748;13.452;2024-01-15T07:57:13;6.23;;;1.37;;
25331;SDS011;13284;52.748;13.452;2024-01-15T07:59:39;4.67;;;0.80;;
25331;SDS011;13284;52.748;13.452;2024-01-15T08:02:05;3.70;;;0.90;;
25331;SDS011;13284;52.748;13.452;2024-01-15T08:04:30;5.20;;;0.80;;
25331;SDS011;13284;52.748;13.452;2024-01-15T08:06:56;2.93;;;2.83;;
25331;SDS011;13284;52.748;13.452;2024-01-15T08:09:22;4.67;;;1.20;;
25331;SDS011;13284;52.748;13.452;2024-01-15T08:11:47;1.60;;;1.00;;
25331;SDS011;13284;52.748;13.452;2024-01-15T08:14:14;6.13;;;1.53;;
25331;SDS011;13284;52.748;13.452;2024-01-15T08:16:40;2.63;;;0.80;;
25331;SDS011;13284;52.748;13.452;2024-01-15T08:19:05;4.00;;;1.20;;
25331;SDS011;13284;52.748;13.452;2024-01-15T08:21:31;11.10;;;2.37;;
25331;SDS011;13284;52.748;13.452;2024-01-15T08:23:57;5.43;;;1.27;;
25331;SDS011;13284;52.748;13.452;2024-01-15T08:26:30;0.87;;;0.53;;
25331;SDS011;13284;52.748;13.452;2024-01-15T08:28:55;2.20;;;0.90;;
25331;SDS011;13284;52.748;13.452;2024-01-15T08:31:21;1.67;;;1.00;;
25331;SDS011;13284;52.748;13.452;2024-01-15T08:33:47;4.73;;;1.70;;
25331;SDS011;13284;52.748;13.452;2024-01-15T08:36:13;0.60;;;0.50;;
25331;SDS011;13284;52.748;13.452;2024-01-15T08:38:39;4.70;;;1.40;;
25331;SDS011;13284;52.748;13.452;2024-01-15T08:41:04;6.00;;;1.07;;
25331;SDS011;13284;52.748;13.452;2024-01-15T08:43:30;7.07;;;1.20;;
25331;SDS011;13284;52.748;13.452;2024-01-15T08:45:58;4.60;;;1.10;;
25331;SDS011;13284;52.748;13.452;2024-01-15T08:48:24;3.60;;;1.20;;
25331;SDS011;13284;52.748;13.452;2024-01-15T08:50:52;3.03;;;1.70;;
25331;SDS011;13284;52.748;13.452;2024-01-15T08:53:18;3.17;;;1.27;;
25331;SDS011;13284;52.748;13.452;2024-01-15T08:55:43;3.93;;;0.70;;
25331;SDS011;13284;52.748;13.452;2024-01-15T08:58:09;3.13;;;1.27;;
25331;SDS011;13284;52.748;13.452;2024-01-15T09:00:35;2.50;;;1.27;;
25331;SDS011;13284;52.748;13.452;2024-01-15T09:03:00;7.80;;;1.43;;
25331;SDS011;13284;52.748;13.452;2024-01-15T09:05:27;2.97;;;1.03;;
25331;SDS011;13284;52.748;13.452;2024-01-15T09:07:52;1.90;;;0.60;;
25331;SDS011;13284;52.748;13.452;2024-01-15T09:10:18;2.90;;;1.10;;
25331;SDS011;13284;52.748;13.452;2024-01-15T09:12:44;4.73;;;0.90;;
25331;SDS011;13284;52.748;13.452;2024-01-15T09:15:09;4.67;;;0.93;;
25331;SDS011;13284;52.748;13.452;2024-01-15T09:17:35;1.67;;;0.70;;
25331;SDS011;13284;52.748;13.452;2024-01-15T09:20:01;7.97;;;0.90;;
25331;SDS011;13284;52.748;13.452;2024-01-15T09:22:26;1.70;;;1.00;;
25331;SDS011;13284;52.748;13.452;2024-01-15T09:24:52;1.70;;;1.30;;
25331;SDS011;13284;52.748;13.452;2024-01-15T09:27:18;6.83;;;0.90;;
25331;SDS011;13284;52.748;13.452;2024-01-15T09:29:43;1.80;;;1.03;;
25331;SDS011;13284;52.748;13.452;2024-01-15T09:32:10;7.97;;;1.10;;
25331;SDS011;13284;52.748;13.452;2024-01-15T09:34:37;6.73;;;0.83;;
25331;SDS011;13284;52.748;13.452;2024-01-15T09:37:03;1.23;;;0.90;;
25331;SDS011;13284;52.748;13.452;2024-01-15T09:39:29;2.50;;;0.90;;
25331;SDS011;13284;52.748;13.452;2024-01-15T09:41:56;6.30;;;1.50;;
25331;SDS011;13284;52.748;13.452;2024-01-15T09:44:22;2.10;;;0.50;;
25331;SDS011;13284;52.748;13.452;2024-01-15T09:46:48;1.13;;;0.70;;
25331;SDS011;13284;52.748;13.452;2024-01-15T09:49:17;10.93;;;1.63;;
25331;SDS011;13284;52.748;13.452;2024-01-15T09:51:43;2.43;;;1.33;;
25331;SDS011;13284;52.748;13.452;2024-01-15T09:54:09;1.40;;;0.77;;
25331;SDS011;13284;52.748;13.452;2024-01-15T09:56:35;1.07;;;0.70;;
25331;SDS011;13284;52.748;13.452;2024-01-15T09:59:00;4.93;;;1.37;;
25331;SDS011;13284;52.748;13.452;2024-01-15T10:01:27;3.30;;;1.17;;
25331;SDS011;13284;52.748;13.452;2024-01-15T10:03:54;2.73;;;1.03;;
25331;SDS011;13284;52.748;13.452;2024-01-15T10:06:19;2.30;;;0.80;;
25331;SDS011;13284;52.748;13.452;2024-01-15T10:08:50;1.00;;;0.60;;
25331;SDS011;13284;52.748;13.452;2024-01-15T10:11:16;4.93;;;1.57;;
25331;SDS011;13284;52.748;13.452;2024-01-15T10:13:45;5.10;;;1.80;;
25331;SDS011;13284;52.748;13.452;2024-01-15T10:16:17;2.73;;;0.70;;
25331;SDS011;13284;52.748;13.452;2024-01-15T10:18:47;1.90;;;0.50;;
25331;SDS011;13284;52.748;13.452;2024-01-15T10:21:12;1.47;;;1.00;;
25331;SDS011;13284;52.748;13.452;2024-01-15T10:23:39;3.13;;;0.67;;
25331;SDS011;13284;52.748;13.452;2024-01-15T10:26:04;2.87;;;1.47;;
25331;SDS011;13284;52.748;13.452;2024-01-15T10:28:30;0.67;;;0.67;;
25331;SDS011;13284;52.748;13.452;2024-01-15T10:30:57;1.03;;;0.60;;
25331;SDS011;13284;52.748;13.452;2024-01-15T10:33:27;6.70;;;0.80;;
25331;SDS011;13284;52.748;13.452;2024-01-15T10:35:53;1.83;;;0.60;;
25331;SDS011;13284;52.748;13.452;2024-01-15T10:38:24;1.20;;;0.53;;
25331;SDS011;13284;52.748;13.452;2024-01-15T10:40:51;1.47;;;0.77;;
25331;SDS011;13284;52.748;13.452;2024-01-15T10:43:17;1.90;;;0.87;;
25331;SDS011;13284;52.748;13.452;2024-01-15T10:45:46;1.57;;;0.60;;
25331;SDS011;13284;52.748;13.452;2024-01-15T10:48:12;1.07;;;0.63;;
25331;SDS011;13284;52.748;13.452;2024-01-15T10:50:39;0.83;;;0.50;;
25331;SDS011;13284;52.748;13.452;2024-01-15T10:53:04;1.00;;;0.63;;
25331;SDS011;13284;52.748;13.452;2024-01-15T10:55:31;1.13;;;1.03;;
25331;SDS011;13284;52.748;13.452;2024-01-15T10:57:58;1.87;;;0.97;;
25331;SDS011;13284;52.748;13.452;2024-01-15T11:00:24;1.40;;;0.60;;
25331;SDS011;13284;52.748;13.452;2024-01-15T11:02:50;2.70;;;0.90;;
25331;SDS011;13284;52.748;13.452;2024-01-15T11:05:16;2.10;;;0.97;;
25331;SDS011;13284;52.748;13.452;2024-01-15T11:07:43;1.23;;;0.53;;
25331;SDS011;13284;52.748;13.452;2024-01-15T11:10:37;0.63;;;0.60;;
25331;SDS011;13284;52.748;13.452;2024-01-15T11:13:05;2.63;;;0.53;;
25331;SDS011;13284;52.748;13.452;2024-01-15T11:15:33;1.43;;;0.60;;
25331;SDS011;13284;52.748;13.452;2024-01-15T11:18:22;1.90;;;0.73;;
25331;SDS011;13284;52.748;13.452;2024-01-15T11:23:55;1.93;;;0.97;;
25331;SDS011;13284;52.748;13.452;2024-01-15T11:26:36;2.00;;;1.10;;
25331;SDS011;13284;52.748;13.452;2024-01-15T11:31:57;1.90;;;1.00;;
25331;SDS011;13284;52.748;13.452;2024-01-15T11:35:10;3.30;;;0.60;;
25331;SDS011;13284;52.748;13.452;2024-01-15T11:37:15;1.53;;;0.50;;
25331;SDS011;13284;52.748;13.452;2024-01-15T11:39:44;2.10;;;0.43;;
25331;SDS011;13284;52.748;13.452;2024-01-15T11:42:12;2.40;;;0.80;;
25331;SDS011;13284;52.748;13.452;2024-01-15T11:44:38;1.27;;;0.50;;
25331;SDS011;13284;52.748;13.452;2024-01-15T11:47:05;0.80;;;0.50;;
25331;SDS011;13284;52.748;13.452;2024-01-15T11:52:30;0.40;;;0.20;;
25331;SDS011;13284;52.748;13.452;2024-01-15T12:00:02;0.77;;;0.40;;
25331;SDS011;13284;52.748;13.452;2024-01-15T12:02:29;2.30;;;1.17;;
25331;SDS011;13284;52.748;13.452;2024-01-15T12:04:55;0.60;;;0.60;;
25331;SDS011;13284;52.748;13.452;2024-01-15T12:07:21;0.67;;;0.33;;
25331;SDS011;13284;52.748;13.452;2024-01-15T12:09:47;1.77;;;0.30;;
25331;SDS011;13284;52.748;13.452;2024-01-15T12:12:16;0.80;;;0.40;;
25331;SDS011;13284;52.748;13.452;2024-01-15T12:14:50;0.30;;;0.30;;
25331;SDS011;13284;52.748;13.452;2024-01-15T12:17:16;0.50;;;0.40;;
25331;SDS011;13284;52.748;13.452;2024-01-15T12:19:43;0.20;;;0.20;;
25331;SDS011;13284;52.748;13.452;2024-01-15T12:22:09;0.40;;;0.40;;
25331;SDS011;13284;52.748;13.452;2024-01-15T12:24:35;1.70;;;0.47;;
25331;SDS011;13284;52.748;13.452;2024-01-15T12:27:04;1.13;;;0.40;;
25331;SDS011;13284;52.748;13.452;2024-01-15T12:29:30;0.27;;;0.27;;
25331;SDS011;13284;52.748;13.452;2024-01-15T12:31:56;0.40;;;0.20;;
25331;SDS011;13284;52.748;13.452;2024-01-15T12:34:23;0.40;;;0.27;;
25331;SDS011;13284;52.748;13.452;2024-01-15T12:36:58;2.17;;;0.30;;
25331;SDS011;13284;52.748;13.452;2024-01-15T12:39:27;0.70;;;0.33;;
25331;SDS011;13284;52.748;13.452;2024-01-15T12:41:53;2.10;;;0.30;;
25331;SDS011;13284;52.748;13.452;2024-01-15T12:44:19;1.23;;;0.40;;
25331;SDS011;13284;52.748;13.452;2024-01-15T12:46:45;2.77;;;0.80;;
25331;SDS011;13284;52.748;13.452;2024-01-15T12:49:12;0.33;;;0.33;;
25331;SDS011;13284;52.748;13.452;2024-01-15T12:51:41;0.70;;;0.40;;
25331;SDS011;13284;52.748;13.452;2024-01-15T12:54:06;1.43;;;0.40;;
25331;SDS011;13284;52.748;13.452;2024-01-15T12:56:32;0.37;;;0.33;;
25331;SDS011;13284;52.748;13.452;2024-01-15T12:58:58;1.30;;;0.37;;
25331;SDS011;13284;52.748;13.452;2024-01-15T13:01:31;2.47;;;0.43;;
25331;SDS011;13284;52.748;13.452;2024-01-15T13:04:07;1.40;;;0.40;;
25331;SDS011;13284;52.748;13.452;2024-01-15T13:06:36;0.53;;;0.40;;
25331;SDS011;13284;52.748;13.452;2024-01-15T13:09:04;1.23;;;0.50;;
25331;SDS011;13284;52.748;13.452;2024-01-15T13:11:33;0.70;;;0.50;;
25331;SDS011;13284;52.748;13.452;2024-01-15T13:14:00;0.57;;;0.57;;
25331;SDS011;13284;52.748;13.452;2024-01-15T13:16:25;1.47;;;0.50;;
25331;SDS011;13284;52.748;13.452;2024-01-15T13:18:54;0.53;;;0.53;;
25331;SDS011;13284;52.748;13.452;2024-01-15T13:21:30;0.50;;;0.20;;
25331;SDS011;13284;52.748;13.452;2024-01-15T13:23:56;0.53;;;0.40;;
25331;SDS011;13284;52.748;13.452;2024-01-15T13:26:25;1.57;;;1.47;;
25331;SDS011;13284;52.748;13.452;2024-01-15T13:28:54;1.80;;;0.73;;
25331;SDS011;13284;52.748;13.452;2024-01-15T13:31:20;0.93;;;0.33;;
25331;SDS011;13284;52.748;13.452;2024-01-15T13:33:46;1.23;;;0.40;;
25331;SDS011;13284;52.748;13.452;2024-01-15T13:36:12;1.13;;;0.40;;
25331;SDS011;13284;52.748;13.452;2024-01-15T13:38:41;0.60;;;0.40;;
25331;SDS011;13284;52.748;13.452;2024-01-15T13:41:07;0.50;;;0.40;;
25331;SDS011;13284;52.748;13.452;2024-01-15T13:43:39;0.37;;;0.37;;
25331;SDS011;13284;52.748;13.452;2024-01-15T13:46:05;0.50;;;0.50;;
25331;SDS011;13284;52.748;13.452;2024-01-15T13:48:32;1.93;;;0.50;;
25331;SDS011;13284;52.748;13.452;2024-01-15T13:51:01;0.93;;;0.47;;
25331;SDS011;13284;52.748;13.452;2024-01-15T13:53:26;0.77;;;0.30;;
25331;SDS011;13284;52.748;13.452;2024-01-15T13:55:52;0.37;;;0.37;;
25331;SDS011;13284;52.748;13.452;2024-01-15T13:58:18;2.63;;;0.40;;
25331;SDS011;13284;52.748;13.452;2024-01-15T14:00:46;0.67;;;0.50;;
25331;SDS011;13284;52.748;13.452;2024-01-15T14:03:12;1.03;;;0.40;;
25331;SDS011;13284;52.748;13.452;2024-01-15T14:05:39;0.30;;;0.30;;
25331;SDS011;13284;52.748;13.452;2024-01-15T14:08:05;0.60;;;0.40;;
25331;SDS011;13284;52.748;13.452;2024-01-15T14:10:34;0.37;;;0.37;;
25331;SDS011;13284;52.748;13.452;2024-01-15T14:13:00;3.07;;;1.50;;
25331;SDS011;13284;52.748;13.452;2024-01-15T14:15:26;0.57;;;0.30;;
25331;SDS011;13284;52.748;13.452;2024-01-15T14:17:55;0.93;;;0.53;;
25331;SDS011;13284;52.748;13.452;2024-01-15T14:20:21;1.43;;;0.70;;
25331;SDS011;13284;52.748;13.452;2024-01-15T14:22:47;3.70;;;0.77;;
25331;SDS011;13284;52.748;13.452;2024-01-15T14:25:13;0.90;;;0.50;;
25331;SDS011;13284;52.748;13.452;2024-01-15T14:27:39;0.30;;;0.30;;
25331;SDS011;13284;52.748;13.452;2024-01-15T14:30:05;1.13;;;0.30;;
25331;SDS011;13284;52.748;13.452;2024-01-15T14:32:33;0.97;;;0.50;;
25331;SDS011;13284;52.748;13.452;2024-01-15T14:35:06;1.40;;;0.37;;
25331;SDS011;13284;52.748;13.452;2024-01-15T14:37:38;0.53;;;0.43;;
25331;SDS011;13284;52.748;13.452;2024-01-15T14:40:08;0.40;;;0.40;;
25331;SDS011;13284;52.748;13.452;2024-01-15T14:42:35;6.73;;;0.77;;